sensor_id;sensor_type;location;lat;lon;timestamp;temperature;humidity
41469;DHT22;27206;47.032;15.484;2023-06-10T00:00:26;15.50;1.00
41469;DHT22;27206;47.032;15.484;2023-06-10T00:02:52;15.40;1.00
41469;DHT22;27206;47.032;15.484;2023-06-10T00:05:17;15.40;1.00
41469;DHT22;27206;47.032;15.484;2023-06-10T00:07:46;15.40;1.00
41469;DHT22;27206;47.032;15.484;2023-06-10T00:10:13;15.40;1.00
41469;DHT22;27206;47.032;15.484;2023-06-10T00:12:39;15.40;1.00
41469;DHT22;27206;47.032;15.484;2023-06-10T00:15:06;15.30;1.00
41469;DHT22;27206;47.032;15.484;2023-06-10T00:17:32;15.20;1.00
41469;DHT22;27206;47.032;15.484;2023-06-10T00:19:58;15.30;1.00
41469;DHT22;27206;47.032;15.484;2023-06-10T00:22:24;15.20;1.00
41469;DHT22;27206;47.032;15.484;2023-06-10T00:24:55;15.30;1.00
41469;DHT22;27206;47.032;15.484;2023-06-10T00:27:21;15.30;1.00
41469;DHT22;27206;47.032;15.484;2023-06-10T00:29:47;15.30;1.00
41469;DHT22;27206;47.032;15.484;2023-06-10T00:32:12;15.30;1.00
41469;DHT22;27206;47.032;15.484;2023-06-10T00:34:38;15.20;1.00
41469;DHT22;27206;47.032;15.484;2023-06-10T00:37:03;15.10;1.00
41469;DHT22;27206;47.032;15.484;2023-06-10T00:39:29;15.10;1.00
41469;DHT22;27206;47.032;15.484;2023-06-10T00:41:55;15.10;1.00
41469;DHT22;27206;47.032;15.484;2023-06-10T00:44:21;15.10;1.00
41469;DHT22;27206;47.032;15.484;2023-06-10T00:46:47;15.00;1.00
41469;DHT22;27206;47.032;15.484;2023-06-10T00:49:13;15.00;1.00
41469;DHT22;27206;47.032;15.484;2023-06-10T00:51:38;15.00;1.00
41469;DHT22;27206;47.032;15.484;2023-06-10T00:54:05;14.80;1.00
41469;DHT22;27206;47.032;15.484;2023-06-10T00:56:33;15.00;1.00
41469;DHT22;27206;47.032;15.484;2023-06-10T00:59:00;15.00;1.00
41469;DHT22;27206;47.032;15.484;2023-06-10T01:01:25;15.00;1.00
41469;DHT22;27206;47.032;15.484;2023-06-10T01:03:52;14.90;1.00
41469;DHT22;27206;47.032;15.484;2023-06-10T01:09:23;14.80;1.00
41469;DHT22;27206;47.032;15.484;2023-06-10T01:12:01;14.80;1.00
41469;DHT22;27206;47.032;15.484;2023-06-10T01:14:29;14.80;1.00
41469;DHT22;27206;47.032;15.484;2023-06-10T01:16:54;14.90;1.00
41469;DHT22;27206;47.032;15.484;2023-06-10T01:19:22;14.80;1.00
41469;DHT22;27206;47.032;15.484;2023-06-10T01:21:50;14.80;1.00
41469;DHT22;27206;47.032;15.484;2023-06-10T01:24:17;14.90;1.00
41469;DHT22;27206;47.032;15.484;2023-06-10T01:26:45;14.80;1.00
41469;DHT22;27206;47.032;15.484;2023-06-10T01:29:37;14.80;1.00
41469;DHT22;27206;47.032;15.484;2023-06-10T01:32:09;14.80;1.00
41469;DHT22;27206;47.032;15.484;2023-06-10T01:34:37;14.80;1.00
41469;DHT22;27206;47.032;15.484;2023-06-10T01:37:04;14.70;1.00
41469;DHT22;27206;47.032;15.484;2023-06-10T01:39:32;14.70;1.00
41469;DHT22;27206;47.032;15.484;2023-06-10T01:41:58;14.70;1.00
41469;DHT22;27206;47.032;15.484;2023-06-10T01:44:23;14.70;1.00
41469;DHT22;27206;47.032;15.484;2023-06-10T01:46:49;14.70;1.00
41469;DHT22;27206;47.032;15.484;2023-06-10T01:49:15;14.70;1.00
41469;DHT22;27206;47.032;15.484;2023-06-10T01:51:41;14.60;1.00
41469;DHT22;27206;47.032;15.484;2023-06-10T01:54:06;14.60;1.00
41469;DHT22;27206;47.032;15.484;2023-06-10T01:56:32;14.70;1.00
41469;DHT22;27206;47.032;15.484;2023-06-10T01:58:58;14.70;1.00
41469;DHT22;27206;47.032;15.484;2023-06-10T02:01:28;14.70;1.00
41469;DHT22;27206;47.032;15.484;2023-06-10T02:03:53;14.60;1.00
41469;DHT22;27206;47.032;15.484;2023-06-10T02:06:19;14.50;1.00
41469;DHT22;27206;47.032;15.484;2023-06-10T02:08:45;14.40;1.00
41469;DHT22;27206;47.032;15.484;2023-06-10T02:11:10;14.40;1.00
41469;DHT22;27206;47.032;15.484;2023-06-10T02:13:36;14.50;1.00
41469;DHT22;27206;47.032;15.484;2023-06-10T02:16:01;14.40;1.00
41469;DHT22;27206;47.032;15.484;2023-06-10T02:18:28;14.30;1.00
41469;DHT22;27206;47.032;15.484;2023-06-10T02:20:54;14.30;1.00
41469;DHT22;27206;47.032;15.484;2023-06-10T02:23:19;14.30;1.00
41469;DHT22;27206;47.032;15.484;2023-06-10T02:25:45;14.30;1.00
41469;DHT22;27206;47.032;15.484;2023-06-10T02:28:13;14.20;8.20
41469;DHT22;27206;47.032;15.484;2023-06-10T02:30:40;14.30;34.80
41469;DHT22;27206;47.032;15.484;2023-06-10T02:33:06;14.20;41.90
41469;DHT22;27206;47.032;15.484;2023-06-10T02:35:35;14.30;61.20
41469;DHT22;27206;47.032;15.484;2023-06-10T02:38:02;14.40;72.80
41469;DHT22;27206;47.032;15.484;2023-06-10T02:40:27;14.40;83.60
41469;DHT22;27206;47.032;15.484;2023-06-10T02:42:53;14.50;95.80
41469;DHT22;27206;47.032;15.484;2023-06-10T02:45:19;14.50;98.90
41469;DHT22;27206;47.032;15.484;2023-06-10T02:47:44;14.50;99.90
41469;DHT22;27206;47.032;15.484;2023-06-10T02:50:10;14.50;99.90
41469;DHT22;27206;47.032;15.484;2023-06-10T02:52:36;14.50;99.90
41469;DHT22;27206;47.032;15.484;2023-06-10T02:55:02;14.50;99.90
41469;DHT22;27206;47.032;15.484;2023-06-10T02:57:27;14.40;99.90
41469;DHT22;27206;47.032;15.484;2023-06-10T02:59:53;14.40;99.90
41469;DHT22;27206;47.032;15.484;2023-06-10T03:02:19;14.40;99.90
41469;DHT22;27206;47.032;15.484;2023-06-10T03:04:45;14.40;99.90
41469;DHT22;27206;47.032;15.484;2023-06-10T03:07:10;14.40;99.90
41469;DHT22;27206;47.032;15.484;2023-06-10T03:09:36;14.30;99.90
41469;DHT22;27206;47.032;15.484;2023-06-10T03:12:02;14.30;99.90
41469;DHT22;27206;47.032;15.484;2023-06-10T03:14:28;14.30;99.90
41469;DHT22;27206;47.032;15.484;2023-06-10T03:16:54;14.30;99.90
41469;DHT22;27206;47.032;15.484;2023-06-10T03:19:19;14.30;99.90
41469;DHT22;27206;47.032;15.484;2023-06-10T03:21:50;14.30;99.90
41469;DHT22;27206;47.032;15.484;2023-06-10T03:24:20;14.30;99.90
41469;DHT22;27206;47.032;15.484;2023-06-10T03:26:45;14.30;99.90
41469;DHT22;27206;47.032;15.484;2023-06-10T03:29:11;14.30;99.90
41469;DHT22;27206;47.032;15.484;2023-06-10T03:31:37;14.40;99.90
41469;DHT22;27206;47.032;15.484;2023-06-10T03:34:04;14.40;99.90
41469;DHT22;27206;47.032;15.484;2023-06-10T03:36:29;14.40;99.90
41469;DHT22;27206;47.032;15.484;2023-06-10T03:38:55;14.40;99.90
41469;DHT22;27206;47.032;15.484;2023-06-10T03:41:22;14.50;99.90
41469;DHT22;27206;47.032;15.484;2023-06-10T03:43:48;14.50;99.90
41469;DHT22;27206;47.032;15.484;2023-06-10T03:46:14;14.50;99.90
41469;DHT22;27206;47.032;15.484;2023-06-10T03:48:40;14.60;99.90
41469;DHT22;27206;47.032;15.484;2023-06-10T03:51:05;14.60;99.90
41469;DHT22;27206;47.032;15.484;2023-06-10T03:53:31;14.60;99.90
41469;DHT22;27206;47.032;15.484;2023-06-10T03:55:57;14.70;99.90
41469;DHT22;27206;47.032;15.484;2023-06-10T03:58:23;14.60;99.90
41469;DHT22;27206;47.032;15.484;2023-06-10T04:00:48;14.60;99.90
41469;DHT22;27206;47.032;15.484;2023-06-10T04:03:14;14.70;99.90
41469;DHT22;27206;47.032;15.484;2023-06-10T04:05:41;14.70;99.90
41469;DHT22;27206;47.032;15.484;2023-06-10T04:08:09;14.60;99.90
41469;DHT22;27206;47.032;15.484;2023-06-10T04:10:35;14.70;99.90
41469;DHT22;27206;47.032;15.484;2023-06-10T04:13:01;14.80;99.90
41469;DHT22;27206;47.032;15.484;2023-06-10T04:15:26;14.80;99.90
41469;DHT22;27206;47.032;15.484;2023-06-10T04:17:52;14.90;99.90
41469;DHT22;27206;47.032;15.484;2023-06-10T04:20:18;14.80;99.90
41469;DHT22;27206;47.032;15.484;2023-06-10T04:22:43;14.70;99.90
41469;DHT22;27206;47.032;15.484;2023-06-10T04:25:10;14.70;99.90
41469;DHT22;27206;47.032;15.484;2023-06-10T04:27:36;14.90;99.90
41469;DHT22;27206;47.032;15.484;2023-06-10T04:30:03;15.00;99.90
41469;DHT22;27206;47.032;15.484;2023-06-10T04:32:29;15.00;99.90
41469;DHT22;27206;47.032;15.484;2023-06-10T04:34:55;15.10;99.90
41469;DHT22;27206;47.032;15.484;2023-06-10T04:37:21;15.10;99.90
41469;DHT22;27206;47.032;15.484;2023-06-10T04:39:47;15.10;94.30
41469;DHT22;27206;47.032;15.484;2023-06-10T04:42:12;15.10;79.50
41469;DHT22;27206;47.032;15.484;2023-06-10T04:44:38;15.10;63.50
41469;DHT22;27206;47.032;15.484;2023-06-10T04:47:04;15.20;49.30
41469;DHT22;27206;47.032;15.484;2023-06-10T04:49:30;15.20;41.20
41469;DHT22;27206;47.032;15.484;2023-06-10T04:51:56;15.50;29.50
41469;DHT22;27206;47.032;15.484;2023-06-10T04:54:22;15.40;1.00
41469;DHT22;27206;47.032;15.484;2023-06-10T04:56:47;15.40;1.00
41469;DHT22;27206;47.032;15.484;2023-06-10T04:59:13;15.60;1.00
41469;DHT22;27206;47.032;15.484;2023-06-10T05:01:39;15.50;1.00
41469;DHT22;27206;47.032;15.484;2023-06-10T05:04:05;15.60;1.00
41469;DHT22;27206;47.032;15.484;2023-06-10T05:06:31;15.60;1.00
41469;DHT22;27206;47.032;15.484;2023-06-10T05:08:56;15.50;1.00
41469;DHT22;27206;47.032;15.484;2023-06-10T05:11:22;15.50;1.00
41469;DHT22;27206;47.032;15.484;2023-06-10T05:13:48;15.70;1.00
41469;DHT22;27206;47.032;15.484;2023-06-10T05:16:14;15.80;1.00
41469;DHT22;27206;47.032;15.484;2023-06-10T05:18:40;15.80;1.00
41469;DHT22;27206;47.032;15.484;2023-06-10T05:21:06;16.00;1.00
41469;DHT22;27206;47.032;15.484;2023-06-10T05:23:32;16.00;1.00
41469;DHT22;27206;47.032;15.484;2023-06-10T05:25:58;16.10;1.00
41469;DHT22;27206;47.032;15.484;2023-06-10T05:28:25;16.10;1.00
41469;DHT22;27206;47.032;15.484;2023-06-10T05:30:51;16.20;1.00
41469;DHT22;27206;47.032;15.484;2023-06-10T05:33:17;16.20;1.00
41469;DHT22;27206;47.032;15.484;2023-06-10T05:35:42;16.30;1.00
41469;DHT22;27206;47.032;15.484;2023-06-10T05:38:08;16.40;1.00
41469;DHT22;27206;47.032;15.484;2023-06-10T05:40:33;16.40;1.00
41469;DHT22;27206;47.032;15.484;2023-06-10T05:42:59;16.50;1.00
41469;DHT22;27206;47.032;15.484;2023-06-10T05:45:24;16.50;1.00
41469;DHT22;27206;47.032;15.484;2023-06-10T05:47:50;16.60;1.00
41469;DHT22;27206;47.032;15.484;2023-06-10T05:50:16;16.60;1.00
41469;DHT22;27206;47.032;15.484;2023-06-10T05:52:41;16.70;1.00
41469;DHT22;27206;47.032;15.484;2023-06-10T05:55:07;16.60;1.00
41469;DHT22;27206;47.032;15.484;2023-06-10T05:57:33;16.80;1.00
41469;DHT22;27206;47.032;15.484;2023-06-10T05:59:59;16.90;1.00
41469;DHT22;27206;47.032;15.484;2023-06-10T06:02:25;16.90;1.00
41469;DHT22;27206;47.032;15.484;2023-06-10T06:04:50;17.00;1.00
41469;DHT22;27206;47.032;15.484;2023-06-10T06:07:16;17.00;1.00
41469;DHT22;27206;47.032;15.484;2023-06-10T06:09:42;17.20;1.00
41469;DHT22;27206;47.032;15.484;2023-06-10T06:12:07;17.30;1.00
41469;DHT22;27206;47.032;15.484;2023-06-10T06:14:37;17.30;1.00
41469;DHT22;27206;47.032;15.484;2023-06-10T06:17:03;17.30;1.00
41469;DHT22;27206;47.032;15.484;2023-06-10T06:19:29;17.20;1.00
41469;DHT22;27206;47.032;15.484;2023-06-10T06:21:54;17.30;1.00
41469;DHT22;27206;47.032;15.484;2023-06-10T06:24:20;17.30;1.00
41469;DHT22;27206;47.032;15.484;2023-06-10T06:26:45;17.50;1.00
41469;DHT22;27206;47.032;15.484;2023-06-10T06:29:11;17.70;1.00
41469;DHT22;27206;47.032;15.484;2023-06-10T06:31:36;17.70;1.00
41469;DHT22;27206;47.032;15.484;2023-06-10T06:34:02;17.80;1.00
41469;DHT22;27206;47.032;15.484;2023-06-10T06:36:28;17.80;1.00
41469;DHT22;27206;47.032;15.484;2023-06-10T06:38:53;17.70;1.00
41469;DHT22;27206;47.032;15.484;2023-06-10T06:41:19;17.70;1.00
41469;DHT22;27206;47.032;15.484;2023-06-10T06:43:45;17.90;1.00
41469;DHT22;27206;47.032;15.484;2023-06-10T06:46:10;18.00;1.00
41469;DHT22;27206;47.032;15.484;2023-06-10T06:48:36;18.10;1.00
41469;DHT22;27206;47.032;15.484;2023-06-10T06:51:01;18.20;1.00
41469;DHT22;27206;47.032;15.484;2023-06-10T06:53:27;18.30;1.00
41469;DHT22;27206;47.032;15.484;2023-06-10T06:55:53;18.30;1.00
41469;DHT22;27206;47.032;15.484;2023-06-10T06:58:19;18.30;1.00
41469;DHT22;27206;47.032;15.484;2023-06-10T07:00:44;18.40;1.00
41469;DHT22;27206;47.032;15.484;2023-06-10T07:03:10;18.50;1.00
41469;DHT22;27206;47.032;15.484;2023-06-10T07:05:36;18.70;1.00
41469;DHT22;27206;47.032;15.484;2023-06-10T07:08:02;18.60;1.00
41469;DHT22;27206;47.032;15.484;2023-06-10T07:10:28;18.80;1.00
41469;DHT22;27206;47.032;15.484;2023-06-10T07:12:54;18.90;1.00
41469;DHT22;27206;47.032;15.484;2023-06-10T07:15:20;18.90;1.00
41469;DHT22;27206;47.032;15.484;2023-06-10T07:17:45;19.00;1.00
41469;DHT22;27206;47.032;15.484;2023-06-10T07:20:11;19.10;1.00
41469;DHT22;27206;47.032;15.484;2023-06-10T07:22:37;19.00;1.00
41469;DHT22;27206;47.032;15.484;2023-06-10T07:25:05;19.10;1.00
41469;DHT22;27206;47.032;15.484;2023-06-10T07:27:31;19.20;1.00
41469;DHT22;27206;47.032;15.484;2023-06-10T07:29:56;19.30;1.00
41469;DHT22;27206;47.032;15.484;2023-06-10T07:32:22;19.40;1.00
41469;DHT22;27206;47.032;15.484;2023-06-10T07:34:49;19.40;1.00
41469;DHT22;27206;47.032;15.484;2023-06-10T07:37:16;19.40;99.90
41469;DHT22;27206;47.032;15.484;2023-06-10T07:39:41;19.50;1.00
41469;DHT22;27206;47.032;15.484;2023-06-10T07:42:08;19.50;99.90
41469;DHT22;27206;47.032;15.484;2023-06-10T07:44:34;19.50;99.90
41469;DHT22;27206;47.032;15.484;2023-06-10T07:46:59;19.60;99.90
41469;DHT22;27206;47.032;15.484;2023-06-10T07:49:25;19.60;99.90
41469;DHT22;27206;47.032;15.484;2023-06-10T07:51:53;19.80;99.90
41469;DHT22;27206;47.032;15.484;2023-06-10T07:54:19;19.70;99.90
41469;DHT22;27206;47.032;15.484;2023-06-10T07:56:45;19.80;99.90
41469;DHT22;27206;47.032;15.484;2023-06-10T07:59:10;19.80;99.90
41469;DHT22;27206;47.032;15.484;2023-06-10T08:01:36;19.80;99.90
41469;DHT22;27206;47.032;15.484;2023-06-10T08:04:03;19.70;99.90
41469;DHT22;27206;47.032;15.484;2023-06-10T08:06:29;20.00;99.90
41469;DHT22;27206;47.032;15.484;2023-06-10T08:08:55;20.20;99.90
41469;DHT22;27206;47.032;15.484;2023-06-10T08:11:20;20.20;99.90
41469;DHT22;27206;47.032;15.484;2023-06-10T08:13:46;20.20;99.90
41469;DHT22;27206;47.032;15.484;2023-06-10T08:16:12;20.30;99.90
41469;DHT22;27206;47.032;15.484;2023-06-10T08:18:37;20.40;99.90
41469;DHT22;27206;47.032;15.484;2023-06-10T08:21:03;20.40;99.90
41469;DHT22;27206;47.032;15.484;2023-06-10T08:23:30;20.60;99.90
41469;DHT22;27206;47.032;15.484;2023-06-10T08:25:55;20.60;99.90
41469;DHT22;27206;47.032;15.484;2023-06-10T08:28:21;20.70;99.90
41469;DHT22;27206;47.032;15.484;2023-06-10T08:30:47;20.90;99.90
41469;DHT22;27206;47.032;15.484;2023-06-10T08:33:12;20.80;99.90
41469;DHT22;27206;47.032;15.484;2023-06-10T08:35:38;20.60;99.90
41469;DHT22;27206;47.032;15.484;2023-06-10T08:38:03;20.70;99.90
41469;DHT22;27206;47.032;15.484;2023-06-10T08:40:29;20.70;99.90
41469;DHT22;27206;47.032;15.484;2023-06-10T08:45:31;20.60;99.90
41469;DHT22;27206;47.032;15.484;2023-06-10T08:47:57;20.70;99.90
41469;DHT22;27206;47.032;15.484;2023-06-10T08:50:25;21.00;99.90
41469;DHT22;27206;47.032;15.484;2023-06-10T08:52:57;21.00;99.90
41469;DHT22;27206;47.032;15.484;2023-06-10T08:55:25;21.10;99.90
41469;DHT22;27206;47.032;15.484;2023-06-10T08:57:53;21.10;99.90
41469;DHT22;27206;47.032;15.484;2023-06-10T09:00:19;21.30;99.90
41469;DHT22;27206;47.032;15.484;2023-06-10T09:02:45;21.10;99.90
41469;DHT22;27206;47.032;15.484;2023-06-10T09:05:12;21.20;99.90
41469;DHT22;27206;47.032;15.484;2023-06-10T09:07:39;21.40;99.90
41469;DHT22;27206;47.032;15.484;2023-06-10T09:10:05;21.30;99.90
41469;DHT22;27206;47.032;15.484;2023-06-10T09:12:33;21.20;99.90
41469;DHT22;27206;47.032;15.484;2023-06-10T09:14:59;21.20;99.90
41469;DHT22;27206;47.032;15.484;2023-06-10T09:17:25;21.40;99.90
41469;DHT22;27206;47.032;15.484;2023-06-10T09:19:52;21.60;99.90
41469;DHT22;27206;47.032;15.484;2023-06-10T09:22:21;21.40;99.90
41469;DHT22;27206;47.032;15.484;2023-06-10T09:24:47;21.50;99.90
41469;DHT22;27206;47.032;15.484;2023-06-10T09:27:13;21.60;99.90
41469;DHT22;27206;47.032;15.484;2023-06-10T09:29:47;21.70;99.90
41469;DHT22;27206;47.032;15.484;2023-06-10T09:32:13;21.80;99.90
41469;DHT22;27206;47.032;15.484;2023-06-10T09:34:39;21.70;99.90
41469;DHT22;27206;47.032;15.484;2023-06-10T09:37:05;21.70;99.90
41469;DHT22;27206;47.032;15.484;2023-06-10T09:39:32;21.60;99.90
41469;DHT22;27206;47.032;15.484;2023-06-10T09:41:57;21.70;99.90
41469;DHT22;27206;47.032;15.484;2023-06-10T09:44:23;21.70;99.90
41469;DHT22;27206;47.032;15.484;2023-06-10T09:46:50;21.70;99.90
41469;DHT22;27206;47.032;15.484;2023-06-10T09:49:17;21.70;99.90
41469;DHT22;27206;47.032;15.484;2023-06-10T09:51:53;21.90;99.90
41469;DHT22;27206;47.032;15.484;2023-06-10T09:54:19;22.10;99.90
41469;DHT22;27206;47.032;15.484;2023-06-10T09:56:49;22.10;99.90
41469;DHT22;27206;47.032;15.484;2023-06-10T09:59:15;22.10;99.90
41469;DHT22;27206;47.032;15.484;2023-06-10T10:01:41;22.60;99.90
41469;DHT22;27206;47.032;15.484;2023-06-10T10:04:07;22.50;99.90
41469;DHT22;27206;47.032;15.484;2023-06-10T10:06:34;22.50;99.90
41469;DHT22;27206;47.032;15.484;2023-06-10T10:09:00;22.70;99.90
41469;DHT22;27206;47.032;15.484;2023-06-10T10:11:27;22.50;99.90
41469;DHT22;27206;47.032;15.484;2023-06-10T10:13:53;22.80;99.90
41469;DHT22;27206;47.032;15.484;2023-06-10T10:16:33;22.90;99.90
41469;DHT22;27206;47.032;15.484;2023-06-10T10:19:07;23.00;99.90
41469;DHT22;27206;47.032;15.484;2023-06-10T10:21:39;23.10;99.90
41469;DHT22;27206;47.032;15.484;2023-06-10T10:24:11;22.80;99.90
41469;DHT22;27206;47.032;15.484;2023-06-10T10:26:38;22.40;99.90
41469;DHT22;27206;47.032;15.484;2023-06-10T10:29:10;22.70;99.90
41469;DHT22;27206;47.032;15.484;2023-06-10T10:31:36;23.00;99.90
41469;DHT22;27206;47.032;15.484;2023-06-10T10:34:07;23.10;99.90
41469;DHT22;27206;47.032;15.484;2023-06-10T10:36:35;23.20;99.90
41469;DHT22;27206;47.032;15.484;2023-06-10T10:39:01;23.10;99.90
41469;DHT22;27206;47.032;15.484;2023-06-10T10:41:31;23.10;99.90
41469;DHT22;27206;47.032;15.484;2023-06-10T10:43:56;23.40;99.90
41469;DHT22;27206;47.032;15.484;2023-06-10T10:46:23;23.40;99.90
41469;DHT22;27206;47.032;15.484;2023-06-10T10:48:53;23.60;99.90
41469;DHT22;27206;47.032;15.484;2023-06-10T10:51:20;23.70;99.90
41469;DHT22;27206;47.032;15.484;2023-06-10T10:54:12;24.00;99.90
41469;DHT22;27206;47.032;15.484;2023-06-10T11:02:18;24.90;99.90
41469;DHT22;27206;47.032;15.484;2023-06-10T11:04:56;24.50;99.90
41469;DHT22;27206;47.032;15.484;2023-06-10T11:07:24;24.60;99.90
41469;DHT22;27206;47.032;15.484;2023-06-10T11:12:26;25.20;99.90
41469;DHT22;27206;47.032;15.484;2023-06-10T11:14:55;25.40;99.90
41469;DHT22;27206;47.032;15.484;2023-06-10T11:17:21;25.10;99.90
41469;DHT22;27206;47.032;15.484;2023-06-10T11:19:47;25.20;99.90
41469;DHT22;27206;47.032;15.484;2023-06-10T11:22:19;25.30;99.90
41469;DHT22;27206;47.032;15.484;2023-06-10T11:24:50;25.20;99.90
41469;DHT22;27206;47.032;15.484;2023-06-10T11:27:23;24.70;99.90
41469;DHT22;27206;47.032;15.484;2023-06-10T11:30:18;24.70;99.90
41469;DHT22;27206;47.032;15.484;2023-06-10T11:32:51;25.10;99.90
41469;DHT22;27206;47.032;15.484;2023-06-10T11:35:19;25.10;99.90
41469;DHT22;27206;47.032;15.484;2023-06-10T11:37:45;25.20;99.90
41469;DHT22;27206;47.032;15.484;2023-06-10T11:40:12;25.10;99.90
41469;DHT22;27206;47.032;15.484;2023-06-10T11:42:41;24.90;99.90
41469;DHT22;27206;47.032;15.484;2023-06-10T11:45:07;24.80;99.90
41469;DHT22;27206;47.032;15.484;2023-06-10T11:47:33;24.60;99.90
41469;DHT22;27206;47.032;15.484;2023-06-10T11:49:59;24.80;99.90
41469;DHT22;27206;47.032;15.484;2023-06-10T11:52:32;24.80;99.90
41469;DHT22;27206;47.032;15.484;2023-06-10T11:54:59;24.80;99.90
41469;DHT22;27206;47.032;15.484;2023-06-10T11:57:25;24.80;99.90
41469;DHT22;27206;47.032;15.484;2023-06-10T11:59:50;25.40;99.90
41469;DHT22;27206;47.032;15.484;2023-06-10T12:02:18;25.60;99.90
41469;DHT22;27206;47.032;15.484;2023-06-10T12:04:44;25.70;99.90
41469;DHT22;27206;47.032;15.484;2023-06-10T12:07:20;25.80;99.90
41469;DHT22;27206;47.032;15.484;2023-06-10T12:09:46;26.70;99.90
41469;DHT22;27206;47.032;15.484;2023-06-10T12:12:14;27.80;99.90
41469;DHT22;27206;47.032;15.484;2023-06-10T12:14:55;27.40;99.90
41469;DHT22;27206;47.032;15.484;2023-06-10T12:17:23;27.00;99.90
41469;DHT22;27206;47.032;15.484;2023-06-10T12:19:50;27.00;99.90
41469;DHT22;27206;47.032;15.484;2023-06-10T12:22:16;26.60;99.90
41469;DHT22;27206;47.032;15.484;2023-06-10T12:27:25;26.20;99.90
41469;DHT22;27206;47.032;15.484;2023-06-10T12:29:51;26.60;99.90
41469;DHT22;27206;47.032;15.484;2023-06-10T12:32:20;26.90;99.90
41469;DHT22;27206;47.032;15.484;2023-06-10T12:35:03;26.80;99.90
41469;DHT22;27206;47.032;15.484;2023-06-10T12:37:30;26.20;99.90
41469;DHT22;27206;47.032;15.484;2023-06-10T12:39:55;25.90;99.90
41469;DHT22;27206;47.032;15.484;2023-06-10T12:42:25;26.60;99.90
41469;DHT22;27206;47.032;15.484;2023-06-10T12:44:53;26.70;99.90
41469;DHT22;27206;47.032;15.484;2023-06-10T12:47:19;26.60;99.90
41469;DHT22;27206;47.032;15.484;2023-06-10T12:49:45;26.60;99.90
41469;DHT22;27206;47.032;15.484;2023-06-10T12:52:10;26.10;99.90
41469;DHT22;27206;47.032;15.484;2023-06-10T12:54:36;25.40;99.90
41469;DHT22;27206;47.032;15.484;2023-06-10T12:57:02;25.10;99.90
41469;DHT22;27206;47.032;15.484;2023-06-10T12:59:28;24.80;99.90
41469;DHT22;27206;47.032;15.484;2023-06-10T13:01:54;24.60;99.90
41469;DHT22;27206;47.032;15.484;2023-06-10T13:04:23;24.30;99.90
41469;DHT22;27206;47.032;15.484;2023-06-10T13:06:49;23.80;99.90
41469;DHT22;27206;47.032;15.484;2023-06-10T13:09:15;23.70;99.90
41469;DHT22;27206;47.032;15.484;2023-06-10T13:11:42;23.60;99.90
41469;DHT22;27206;47.032;15.484;2023-06-10T13:14:09;23.60;99.90
41469;DHT22;27206;47.032;15.484;2023-06-10T13:16:35;23.70;99.90
41469;DHT22;27206;47.032;15.484;2023-06-10T13:19:03;23.80;99.90
41469;DHT22;27206;47.032;15.484;2023-06-10T13:21:31;23.80;99.90
41469;DHT22;27206;47.032;15.484;2023-06-10T13:23:57;24.00;99.90
41469;DHT22;27206;47.032;15.484;2023-06-10T13:26:23;24.90;99.90
41469;DHT22;27206;47.032;15.484;2023-06-10T13:28:48;26.20;99.90
41469;DHT22;27206;47.032;15.484;2023-06-10T13:31:14;26.90;99.90
41469;DHT22;27206;47.032;15.484;2023-06-10T13:33:39;25.70;99.90
41469;DHT22;27206;47.032;15.484;2023-06-10T13:36:05;24.80;99.90
41469;DHT22;27206;47.032;15.484;2023-06-10T13:38:31;24.60;99.90
41469;DHT22;27206;47.032;15.484;2023-06-10T13:40:57;24.20;99.90
41469;DHT22;27206;47.032;15.484;2023-06-10T13:43:23;23.90;99.90
41469;DHT22;27206;47.032;15.484;2023-06-10T13:45:48;23.50;99.90
41469;DHT22;27206;47.032;15.484;2023-06-10T13:48:14;22.90;99.90
41469;DHT22;27206;47.032;15.484;2023-06-10T13:50:40;22.50;99.90
41469;DHT22;27206;47.032;15.484;2023-06-10T13:53:05;22.60;99.90
41469;DHT22;27206;47.032;15.484;2023-06-10T13:55:31;22.40;99.90
41469;DHT22;27206;47.032;15.484;2023-06-10T13:57:56;22.40;99.90
41469;DHT22;27206;47.032;15.484;2023-06-10T14:00:22;22.60;99.90
41469;DHT22;27206;47.032;15.484;2023-06-10T14:02:48;22.80;99.90
41469;DHT22;27206;47.032;15.484;2023-06-10T14:05:13;22.80;99.90
41469;DHT22;27206;47.032;15.484;2023-06-10T14:07:39;23.00;99.90
41469;DHT22;27206;47.032;15.484;2023-06-10T14:10:06;22.90;99.90
41469;DHT22;27206;47.032;15.484;2023-06-10T14:12:33;23.00;99.90
41469;DHT22;27206;47.032;15.484;2023-06-10T14:14:59;22.60;99.90
41469;DHT22;27206;47.032;15.484;2023-06-10T14:17:24;22.30;99.90
41469;DHT22;27206;47.032;15.484;2023-06-10T14:19:50;22.10;99.90
41469;DHT22;27206;47.032;15.484;2023-06-10T14:22:15;22.10;99.90
41469;DHT22;27206;47.032;15.484;2023-06-10T14:24:41;22.00;99.90
41469;DHT22;27206;47.032;15.484;2023-06-10T14:27:07;21.90;99.90
41469;DHT22;27206;47.032;15.484;2023-06-10T14:29:32;21.90;99.90
41469;DHT22;27206;47.032;15.484;2023-06-10T14:31:59;21.90;99.90
41469;DHT22;27206;47.032;15.484;2023-06-10T14:34:25;21.90;99.90
41469;DHT22;27206;47.032;15.484;2023-06-10T14:36:54;22.00;99.90
41469;DHT22;27206;47.032;15.484;2023-06-10T14:39:20;21.90;99.90
41469;DHT22;27206;47.032;15.484;2023-06-10T14:41:46;21.70;99.90
41469;DHT22;27206;47.032;15.484;2023-06-10T14:44:11;21.50;99.90
41469;DHT22;27206;47.032;15.484;2023-06-10T14:46:37;21.40;99.90
41469;DHT22;27206;47.032;15.484;2023-06-10T14:49:03;21.30;99.90
41469;DHT22;27206;47.032;15.484;2023-06-10T14:51:28;21.40;99.90
41469;DHT22;27206;47.032;15.484;2023-06-10T14:53:54;21.40;99.90
41469;DHT22;27206;47.032;15.484;2023-06-10T14:56:19;21.40;99.90
41469;DHT22;27206;47.032;15.484;2023-06-10T14:58:45;21.40;99.90
41469;DHT22;27206;47.032;15.484;2023-06-10T15:01:11;21.30;99.90
41469;DHT22;27206;47.032;15.484;2023-06-10T15:03:36;21.30;99.90
41469;DHT22;27206;47.032;15.484;2023-06-10T15:06:02;21.10;99.90
41469;DHT22;27206;47.032;15.484;2023-06-10T15:08:28;21.10;99.90
41469;DHT22;27206;47.032;15.484;2023-06-10T15:10:54;21.20;99.90
41469;DHT22;27206;47.032;15.484;2023-06-10T15:13:20;21.20;99.90
41469;DHT22;27206;47.032;15.484;2023-06-10T15:15:45;21.30;99.90
41469;DHT22;27206;47.032;15.484;2023-06-10T15:18:11;21.30;99.90
41469;DHT22;27206;47.032;15.484;2023-06-10T15:20:37;21.40;99.90
41469;DHT22;27206;47.032;15.484;2023-06-10T15:23:02;21.50;99.90
41469;DHT22;27206;47.032;15.484;2023-06-10T15:25:28;21.40;99.90
41469;DHT22;27206;47.032;15.484;2023-06-10T15:27:53;21.30;99.90
41469;DHT22;27206;47.032;15.484;2023-06-10T15:30:19;21.10;1.00
41469;DHT22;27206;47.032;15.484;2023-06-10T15:32:45;21.10;99.90